Time;durP1;ratioP1;P1;durP2;ratioP2;P2;SDS_P1;SDS_P2;PMS_P1;PMS_P2;Temp;Humidity;BMP_temperature;BMP_pressure;BME280_temperature;BME280_humidity;BME280_pressure;Samples;Min_cycle;Max_cycle;Signal;HPM_P1;HPM_P2
2023/08/15 00:01:27;;;;;;;8.43;5.20;;;;;;;19.87;100.00;98537.66;4902374;29;20241;-59
2023/08/15 00:03:54;;;;;;;10.30;4.97;;;;;;;19.92;100.00;98534.38;4897883;29;20234;-59
2023/08/15 00:06:26;;;;;;;11.03;5.27;;;;;;;19.91;100.00;98525.66;4900412;29;20320;-59
2023/08/15 00:08:54;;;;;;;12.83;4.67;;;;;;;19.84;100.00;98527.50;4898863;29;20244;-60
2023/08/15 00:11:25;;;;;;;12.13;5.27;;;;;;;19.84;100.00;98524.84;4899729;29;20245;-60
2023/08/15 00:13:55;;;;;;;13.03;5.37;;;;;;;19.80;100.00;98526.28;4897302;29;20241;-59
2023/08/15 00:16:25;;;;;;;10.80;5.93;;;;;;;19.78;100.00;98525.69;4914880;29;20237;-59
2023/08/15 00:18:52;;;;;;;11.27;5.13;;;;;;;19.79;100.00;98526.50;4896453;29;20249;-59
2023/08/15 00:21:22;;;;;;;10.83;5.10;;;;;;;19.76;100.00;98539.13;4898875;29;20615;-59
2023/08/15 00:23:50;;;;;;;12.23;5.50;;;;;;;19.81;100.00;98527.91;4899927;29;20232;-60
2023/08/15 00:26:17;;;;;;;14.37;5.77;;;;;;;19.75;100.00;98526.13;4899750;29;20331;-60
2023/08/15 00:28:44;;;;;;;14.40;5.60;;;;;;;19.74;100.00;98522.66;4899935;29;21037;-59
2023/08/15 00:31:10;;;;;;;12.03;5.30;;;;;;;19.83;100.00;98528.50;4914101;29;20241;-60
2023/08/15 00:33:37;;;;;;;16.33;5.83;;;;;;;19.79;100.00;98527.31;4902440;29;20806;-60
2023/08/15 00:36:04;;;;;;;11.27;5.60;;;;;;;19.86;100.00;98525.44;4899423;29;20881;-59
2023/08/15 00:38:31;;;;;;;9.30;5.47;;;;;;;19.85;100.00;98525.63;4901947;29;20319;-59
2023/08/15 00:40:59;;;;;;;14.07;6.23;;;;;;;19.82;100.00;98523.41;4901498;29;20590;-60
2023/08/15 00:43:25;;;;;;;7.00;4.83;;;;;;;19.81;100.00;98521.78;4902256;29;20229;-59
2023/08/15 00:45:52;;;;;;;14.97;5.70;;;;;;;19.79;100.00;98516.72;4899114;29;20264;-59
2023/08/15 00:48:21;;;;;;;7.97;5.70;;;;;;;19.86;100.00;98514.03;4904313;29;20240;-60
2023/08/15 00:50:50;;;;;;;9.50;5.30;;;;;;;19.88;100.00;98517.25;4903081;29;20726;-60
2023/08/15 00:53:17;;;;;;;11.60;6.40;;;;;;;19.85;100.00;98513.22;4901568;29;20226;-59
2023/08/15 00:55:46;;;;;;;13.50;6.03;;;;;;;19.91;100.00;98504.44;4900888;29;20692;-60
2023/08/15 00:58:14;;;;;;;10.07;5.57;;;;;;;19.89;100.00;98506.50;4895355;29;20287;-59
2023/08/15 01:00:42;;;;;;;8.17;5.67;;;;;;;20.02;100.00;98512.72;4900275;29;20231;-60
2023/08/15 01:03:09;;;;;;;10.93;5.50;;;;;;;20.05;100.00;98507.00;4909344;29;20253;-60
2023/08/15 01:05:36;;;;;;;14.37;5.33;;;;;;;20.05;100.00;98507.00;4912817;29;20234;-60
2023/08/15 01:08:02;;;;;;;11.53;6.03;;;;;;;20.08;100.00;98519.00;4905367;29;20951;-60
2023/08/15 01:10:30;;;;;;;15.13;6.10;;;;;;;20.12;100.00;98515.72;4899712;29;20315;-59
2023/08/15 01:13:03;;;;;;;12.43;6.63;;;;;;;20.16;100.00;98513.44;4897908;29;20243;-59
2023/08/15 01:15:34;;;;;;;11.37;5.50;;;;;;;20.16;100.00;98508.94;4917897;29;20238;-60
2023/08/15 01:18:07;;;;;;;9.97;5.97;;;;;;;20.15;100.00;98517.09;4897866;29;20230;-60
2023/08/15 01:20:36;;;;;;;11.13;5.93;;;;;;;20.13;100.00;98513.88;4899082;29;20235;-60
2023/08/15 01:23:07;;;;;;;12.03;5.90;;;;;;;20.15;100.00;98509.97;4896400;29;20229;-60
2023/08/15 01:25:40;;;;;;;6.77;5.20;;;;;;;20.15;100.00;98517.09;4903820;29;20243;-60
2023/08/15 01:28:12;;;;;;;13.93;5.30;;;;;;;20.20;100.00;98523.38;4897937;29;20235;-61
2023/08/15 01:30:42;;;;;;;9.00;5.70;;;;;;;20.21;100.00;98527.66;4901412;29;20292;-61
2023/08/15 01:33:16;;;;;;;7.63;5.07;;;;;;;20.17;100.00;98525.66;4904796;29;21992;-60
2023/08/15 01:35:47;;;;;;;8.00;5.03;;;;;;;20.10;100.00;98515.13;4900141;29;20720;-60
2023/08/15 01:38:22;;;;;;;13.90;6.20;;;;;;;20.05;100.00;98507.00;4898143;29;20234;-60
2023/08/15 01:40:55;;;;;;;11.77;5.77;;;;;;;20.01;100.00;98511.09;4911829;29;20228;-61
2023/08/15 01:43:23;;;;;;;11.17;5.50;;;;;;;19.97;100.00;98507.28;4899670;29;20238;-61
2023/08/15 01:45:50;;;;;;;12.80;6.63;;;;;;;19.91;100.00;98507.09;4903239;29;20722;-60
2023/08/15 01:48:16;;;;;;;7.20;5.47;;;;;;;19.88;100.00;98504.03;4893630;29;20239;-61
2023/08/15 01:50:43;;;;;;;12.70;5.60;;;;;;;19.84;100.00;98494.88;4908270;29;20239;-60
2023/08/15 01:53:10;;;;;;;10.83;5.80;;;;;;;19.82;100.00;98518.13;4893720;29;20810;-60
2023/08/15 01:55:36;;;;;;;11.80;6.20;;;;;;;19.80;100.00;98514.88;4896084;29;20223;-60
2023/08/15 01:58:04;;;;;;;13.47;6.07;;;;;;;19.76;100.00;98511.84;4908743;29;20241;-61
2023/08/15 02:00:31;;;;;;;14.20;6.30;;;;;;;19.77;100.00;98516.13;4896754;29;20231;-60
2023/08/15 02:02:57;;;;;;;9.50;6.43;;;;;;;19.83;100.00;98515.28;4894416;29;20239;-60
2023/08/15 02:05:24;;;;;;;9.97;6.23;;;;;;;19.85;100.00;98510.56;4909602;29;20668;-62
2023/08/15 02:07:51;;;;;;;11.40;6.07;;;;;;;19.89;100.00;98511.81;4895653;29;20230;-61
2023/08/15 02:10:17;;;;;;;12.33;6.60;;;;;;;19.93;100.00;98519.31;4900420;29;20643;-60
2023/08/15 02:12:48;;;;;;;13.23;5.07;;;;;;;19.96;100.00;98535.59;4899010;29;20235;-60
2023/08/15 02:15:16;;;;;;;16.27;5.63;;;;;;;19.99;100.00;98545.75;4898772;29;20238;-60
2023/08/15 02:17:42;;;;;;;6.80;5.60;;;;;;;20.03;100.00;98548.81;4899854;29;20726;-60
2023/08/15 02:20:10;;;;;;;12.27;5.63;;;;;;;20.07;100.00;98536.75;4903418;29;20705;-58
2023/08/15 02:22:36;;;;;;;10.40;6.27;;;;;;;20.09;100.00;98533.88;4897782;29;20228;-60
2023/08/15 02:25:03;;;;;;;16.63;6.47;;;;;;;20.17;100.00;98528.31;4910745;29;20587;-60
2023/08/15 02:27:30;;;;;;;10.67;6.20;;;;;;;20.15;100.00;98528.50;4894348;29;20723;-60
2023/08/15 02:29:56;;;;;;;16.50;6.17;;;;;;;20.16;100.00;98531.97;4909047;29;21035;-60
2023/08/15 02:32:24;;;;;;;9.70;6.20;;;;;;;20.14;100.00;98540.13;4894999;29;20631;-60
2023/08/15 02:34:52;;;;;;;10.07;6.63;;;;;;;20.16;100.00;98543.38;4894078;29;20238;-60
2023/08/15 02:37:18;;;;;;;8.17;6.03;;;;;;;20.17;100.00;98538.91;4896911;29;20241;-60
2023/08/15 02:39:50;;;;;;;15.53;6.17;;;;;;;20.23;100.00;98535.38;4892191;29;20314;-60
2023/08/15 02:42:17;;;;;;;8.43;5.37;;;;;;;20.20;100.00;98531.31;4895448;29;20255;-60
2023/08/15 02:44:50;;;;;;;9.30;6.00;;;;;;;20.18;100.00;98517.47;4893678;29;20242;-60
2023/08/15 02:47:18;;;;;;;8.97;5.93;;;;;;;20.19;100.00;98523.59;4897763;29;20262;-60
2023/08/15 02:49:51;;;;;;;12.23;6.03;;;;;;;20.19;100.00;98527.03;4895884;29;20251;-61
2023/08/15 02:52:18;;;;;;;12.93;6.60;;;;;;;20.23;100.00;98529.28;4898307;29;20234;-60
2023/08/15 02:54:50;;;;;;;13.53;6.53;;;;;;;20.14;100.00;98523.44;4911271;29;20238;-60
2023/08/15 02:57:16;;;;;;;7.57;6.17;;;;;;;20.09;100.00;98528.56;4905890;29;20318;-60
2023/08/15 02:59:43;;;;;;;11.93;6.60;;;;;;;20.03;100.00;98527.59;4898022;29;20232;-60
2023/08/15 03:02:11;;;;;;;9.20;6.30;;;;;;;20.03;100.00;98530.25;4902530;29;20252;-59
2023/08/15 03:04:37;;;;;;;10.03;5.80;;;;;;;20.01;100.00;98538.41;4894243;29;20322;-60
2023/08/15 03:07:05;;;;;;;14.07;6.33;;;;;;;19.88;100.00;98541.09;4901292;29;20318;-60
2023/08/15 03:09:32;;;;;;;11.50;6.80;;;;;;;19.80;100.00;98541.34;4898233;29;20233;-60
2023/08/15 03:11:59;;;;;;;14.47;6.90;;;;;;;19.74;100.00;98535.88;4895615;29;20239;-60
2023/08/15 03:14:28;;;;;;;11.87;7.47;;;;;;;19.70;100.00;98537.34;4896142;29;20295;-61
2023/08/15 03:16:54;;;;;;;9.93;6.70;;;;;;;19.65;100.00;98539.00;4895330;29;20237;-60
2023/08/15 03:19:21;;;;;;;10.97;6.70;;;;;;;19.59;100.00;98549.41;4897472;29;20235;-60
2023/08/15 03:21:48;;;;;;;12.67;7.20;;;;;;;19.63;100.00;98549.78;4909788;29;20236;-60
2023/08/15 03:24:16;;;;;;;12.03;7.03;;;;;;;19.58;100.00;98552.28;4894477;29;21028;-61
2023/08/15 03:26:43;;;;;;;11.97;7.00;;;;;;;19.54;100.00;98566.97;4911577;29;20275;-60
2023/08/15 03:29:09;;;;;;;15.00;6.77;;;;;;;19.47;100.00;98562.53;4892845;29;22886;-60
2023/08/15 03:31:36;;;;;;;15.37;6.73;;;;;;;19.45;100.00;98559.28;5132110;23;20237;-60
2023/08/15 03:34:03;;;;;;;9.37;7.33;;;;;;;19.42;100.00;98550.91;4941598;28;20724;-59
2023/08/15 03:36:30;;;;;;;11.27;7.70;;;;;;;19.38;100.00;98547.06;4939580;28;20232;-59
2023/08/15 03:38:57;;;;;;;12.57;7.47;;;;;;;19.36;100.00;98542.00;4938622;28;20254;-60
2023/08/15 03:41:25;;;;;;;13.33;7.40;;;;;;;19.36;100.00;98551.75;4943097;28;20252;-60
2023/08/15 03:43:52;;;;;;;10.70;7.17;;;;;;;19.32;100.00;98568.06;4928361;28;20242;-60
2023/08/15 03:46:19;;;;;;;11.77;7.57;;;;;;;19.26;100.00;98568.09;4944431;28;20833;-60
2023/08/15 03:48:46;;;;;;;10.70;7.33;;;;;;;19.27;100.00;98572.38;4934814;28;20227;-59
2023/08/15 03:51:12;;;;;;;14.50;7.90;;;;;;;19.29;100.00;98576.41;4930550;28;20238;-60
2023/08/15 03:53:39;;;;;;;12.33;7.47;;;;;;;19.30;100.00;98577.25;4934873;28;20227;-60
2023/08/15 03:56:05;;;;;;;15.40;8.17;;;;;;;19.39;100.00;98567.22;4935824;28;20233;-60
2023/08/15 03:58:34;;;;;;;9.23;7.97;;;;;;;19.33;100.00;98579.47;4942964;28;20846;-60
2023/08/15 04:01:02;;;;;;;14.13;7.40;;;;;;;19.31;100.00;98577.03;4936448;28;20366;-60
2023/08/15 04:03:28;;;;;;;18.17;8.40;;;;;;;19.31;100.00;98577.03;4943696;28;20549;-60
2023/08/15 04:05:55;;;;;;;9.17;7.83;;;;;;;19.26;100.00;98579.47;4932521;28;20230;-60
2023/08/15 04:08:22;;;;;;;11.60;7.50;;;;;;;19.27;100.00;98586.41;4938300;28;20255;-60
2023/08/15 04:10:48;;;;;;;12.30;7.97;;;;;;;19.25;100.00;98585.78;4940021;28;20225;-61
2023/08/15 04:13:17;;;;;;;15.33;8.10;;;;;;;19.23;100.00;98587.84;4937923;28;20250;-60
2023/08/15 04:15:47;;;;;;;15.47;7.40;;;;;;;19.24;100.00;98586.81;4937901;28;20290;-60
2023/08/15 04:18:14;;;;;;;11.97;7.90;;;;;;;19.33;100.00;98585.56;4936789;28;20234;-60
2023/08/15 04:20:42;;;;;;;11.50;7.10;;;;;;;19.28;100.00;98581.94;4948836;28;20247;-60
2023/08/15 04:23:10;;;;;;;9.60;7.00;;;;;;;19.24;100.00;98594.75;4936657;28;20320;-60
2023/08/15 04:25:38;;;;;;;9.20;7.67;;;;;;;19.29;100.00;98602.06;4937812;28;20231;-60
2023/08/15 04:28:06;;;;;;;16.70;7.40;;;;;;;19.22;100.00;98601.28;4934237;28;20288;-60
2023/08/15 04:30:34;;;;;;;9.40;7.07;;;;;;;19.20;100.00;98605.97;4951795;28;20777;-60
2023/08/15 04:33:02;;;;;;;10.03;8.10;;;;;;;19.19;100.00;98602.50;4948218;28;20238;-60
2023/08/15 04:35:29;;;;;;;11.67;8.00;;;;;;;19.24;100.00;98602.69;4940206;28;20234;-59
2023/08/15 04:37:56;;;;;;;15.40;7.30;;;;;;;19.21;100.00;98605.75;4934136;28;20241;-60
2023/08/15 04:40:31;;;;;;;11.97;7.57;;;;;;;19.23;100.00;98616.94;4938033;28;20673;-60
2023/08/15 04:42:58;;;;;;;9.77;7.80;;;;;;;19.25;100.00;98622.03;4949480;28;20248;-61
2023/08/15 04:45:25;;;;;;;9.17;8.00;;;;;;;19.33;100.00;98613.88;4938097;29;20865;-60
2023/08/15 04:47:51;;;;;;;12.53;7.10;;;;;;;19.34;100.00;98620.78;4935031;28;21035;-61
2023/08/15 04:50:20;;;;;;;11.30;7.67;;;;;;;19.38;100.00;98626.47;4938520;28;20236;-60
2023/08/15 04:52:47;;;;;;;16.80;7.63;;;;;;;19.41;100.00;98636.63;4938576;28;20239;-60
2023/08/15 04:55:14;;;;;;;14.93;7.60;;;;;;;19.44;100.00;98638.88;4935784;28;20246;-60
2023/08/15 04:57:41;;;;;;;10.33;7.73;;;;;;;19.47;100.00;98646.41;4937263;29;20225;-60
2023/08/15 05:00:12;;;;;;;13.43;8.00;;;;;;;19.53;100.00;98642.13;4931914;28;20227;-60
2023/08/15 05:02:39;;;;;;;12.57;7.73;;;;;;;19.59;100.00;98644.72;4942309;29;20612;-60
2023/08/15 05:05:09;;;;;;;9.33;7.73;;;;;;;19.66;100.00;98639.41;4936534;28;20311;-60
2023/08/15 05:07:37;;;;;;;14.10;7.93;;;;;;;19.77;100.00;98649.34;4934974;28;20304;-60
2023/08/15 05:10:05;;;;;;;13.37;7.07;;;;;;;19.86;100.00;98644.63;4932701;28;20608;-60
2023/08/15 05:12:32;;;;;;;10.67;7.93;;;;;;;19.96;100.00;98646.84;4934776;29;20276;-60
2023/08/15 05:14:59;;;;;;;13.57;8.07;;;;;;;20.02;100.00;98645.19;4933126;28;20697;-60
2023/08/15 05:17:25;;;;;;;11.47;7.53;;;;;;;20.14;100.00;98642.69;4935725;29;20240;-60
2023/08/15 05:19:53;;;;;;;14.10;7.73;;;;;;;20.31;100.00;98638.50;4933491;28;20763;-60
2023/08/15 05:22:20;;;;;;;9.90;7.33;;;;;;;20.47;100.00;98644.31;4936103;29;20319;-60
2023/08/15 05:24:51;;;;;;;14.40;7.07;;;;;;;20.54;100.00;98638.94;4935235;28;20247;-61
2023/08/15 05:27:18;;;;;;;12.73;6.43;;;;;;;20.68;100.00;98640.47;4937251;29;20293;-60
2023/08/15 05:29:50;;;;;;;13.00;7.30;;;;;;;20.74;100.00;98641.44;4936401;28;20258;-61
2023/08/15 05:32:17;;;;;;;10.77;7.43;;;;;;;20.81;100.00;98647.53;4936266;29;20238;-60
2023/08/15 05:34:47;;;;;;;13.27;7.10;;;;;;;20.90;100.00;98646.22;4935178;28;20215;-60
2023/08/15 05:37:15;;;;;;;14.07;7.40;;;;;;;20.98;100.00;98649.63;4934939;28;20232;-61
2023/08/15 05:39:43;;;;;;;12.23;7.07;;;;;;;21.01;100.00;98642.06;4936950;29;20224;-60
2023/08/15 05:42:17;;;;;;;11.57;6.83;;;;;;;21.05;100.00;98637.13;4933212;28;20236;-59
2023/08/15 05:44:47;;;;;;;11.07;6.93;;;;;;;21.11;100.00;98630.94;4938658;29;20243;-60
2023/08/15 05:47:14;;;;;;;8.63;6.77;;;;;;;21.15;100.00;98634.78;4936420;28;20300;-60
2023/08/15 05:49:42;;;;;;;8.63;6.77;;;;;;;21.22;100.00;98637.34;4937525;28;20268;-61
2023/08/15 05:52:09;;;;;;;11.53;6.80;;;;;;;21.28;100.00;98641.78;4941544;28;20863;-60
2023/08/15 05:54:36;;;;;;;7.77;6.60;;;;;;;21.35;100.00;98647.81;4934428;28;20237;-60
2023/08/15 05:57:02;;;;;;;12.43;6.30;;;;;;;21.47;100.00;98645.25;4932349;28;20231;-60
2023/08/15 05:59:30;;;;;;;8.60;7.30;;;;;;;21.52;100.00;98645.41;4936318;28;20254;-62
2023/08/15 06:01:58;;;;;;;11.30;6.67;;;;;;;21.55;100.00;98651.31;4933372;28;20915;-60
2023/08/15 06:04:25;;;;;;;11.87;6.67;;;;;;;21.63;100.00;98653.69;4938820;29;20231;-60
2023/08/15 06:06:51;;;;;;;9.37;6.80;;;;;;;21.68;100.00;98648.53;4932570;28;20592;-61
2023/08/15 06:09:18;;;;;;;10.47;6.77;;;;;;;21.73;100.00;98653.97;4936182;28;20267;-60
2023/08/15 06:11:44;;;;;;;12.53;6.77;;;;;;;21.68;100.00;98664.47;4938525;28;20248;-60
2023/08/15 06:14:11;;;;;;;12.30;6.97;;;;;;;21.71;100.00;98676.47;4932912;28;20295;-60
2023/08/15 06:16:39;;;;;;;15.30;7.20;;;;;;;21.79;100.00;98673.53;4937371;29;20250;-60
2023/08/15 06:19:05;;;;;;;13.87;6.87;;;;;;;21.81;100.00;98674.13;4931007;28;20248;-60
2023/08/15 06:21:32;;;;;;;10.37;7.17;;;;;;;21.79;100.00;98678.84;4939983;28;20228;-60
2023/08/15 06:23:59;;;;;;;10.00;6.63;;;;;;;21.91;100.00;98676.22;4933245;28;20231;-60
2023/08/15 06:26:25;;;;;;;8.67;6.70;;;;;;;22.09;100.00;98683.38;4935990;28;20789;-60
2023/08/15 06:28:52;;;;;;;8.47;6.60;;;;;;;22.32;100.00;98685.31;4931928;28;20255;-60
2023/08/15 06:31:18;;;;;;;8.93;6.33;;;;;;;22.59;100.00;98692.13;4934911;29;20236;-61
2023/08/15 06:33:46;;;;;;;10.20;6.33;;;;;;;22.78;100.00;98696.31;4933026;28;20599;-60
2023/08/15 06:36:13;;;;;;;8.47;5.97;;;;;;;23.00;100.00;98693.09;4933042;28;20233;-60
2023/08/15 06:38:40;;;;;;;9.23;6.90;;;;;;;23.16;100.00;98699.59;4936018;28;20232;-60
2023/08/15 06:41:06;;;;;;;9.60;6.50;;;;;;;23.35;100.00;98699.50;4930785;28;20249;-60
2023/08/15 06:43:33;;;;;;;11.67;5.80;;;;;;;23.58;100.00;98703.97;4936643;28;20238;-61
2023/08/15 06:46:00;;;;;;;9.77;5.83;;;;;;;23.80;100.00;98709.50;4935818;28;20237;-61
2023/08/15 06:48:27;;;;;;;11.30;6.57;;;;;;;23.92;100.00;98708.66;4933300;29;20233;-61
2023/08/15 06:50:55;;;;;;;9.70;6.27;;;;;;;24.12;100.00;98706.41;4934017;28;20646;-61
2023/08/15 06:53:21;;;;;;;7.17;5.80;;;;;;;24.30;100.00;98709.94;4938018;28;20226;-61
2023/08/15 06:55:49;;;;;;;15.93;6.93;;;;;;;24.28;98.94;98709.38;4938389;28;20642;-61
2023/08/15 06:58:15;;;;;;;10.43;6.60;;;;;;;24.37;98.26;98707.13;4931246;28;20241;-61
2023/08/15 07:00:43;;;;;;;9.23;6.13;;;;;;;24.41;96.38;98705.59;4936583;28;20236;-61
2023/08/15 07:03:09;;;;;;;8.80;6.30;;;;;;;24.27;97.95;98705.91;4932814;28;20724;-61
2023/08/15 07:05:36;;;;;;;7.73;5.93;;;;;;;24.16;98.15;98706.75;4937645;28;20237;-61
2023/08/15 07:08:05;;;;;;;12.87;6.87;;;;;;;24.06;98.41;98709.22;4931445;28;20327;-61
2023/08/15 07:10:34;;;;;;;7.97;6.57;;;;;;;23.94;98.29;98714.56;4935737;28;20237;-61
2023/08/15 07:13:01;;;;;;;12.23;7.60;;;;;;;23.79;100.00;98723.88;4934732;28;20328;-60
2023/08/15 07:15:28;;;;;;;8.83;6.53;;;;;;;23.83;100.00;98721.53;4937556;28;20780;-60
2023/08/15 07:17:54;;;;;;;12.57;6.30;;;;;;;23.87;100.00;98717.38;4932669;28;20233;-60
2023/08/15 07:20:21;;;;;;;8.83;6.70;;;;;;;23.77;100.00;98727.81;4938669;28;20597;-60
2023/08/15 07:22:47;;;;;;;9.93;6.43;;;;;;;23.68;100.00;98728.19;4934406;28;20572;-61
2023/08/15 07:25:15;;;;;;;9.63;6.40;;;;;;;23.62;100.00;98721.13;4930513;28;20234;-60
2023/08/15 07:27:42;;;;;;;9.77;6.70;;;;;;;23.39;100.00;98721.97;4934572;28;20253;-60
2023/08/15 07:30:11;;;;;;;8.57;6.70;;;;;;;23.34;100.00;98724.50;4932534;28;20226;-60
2023/08/15 07:32:38;;;;;;;7.93;6.77;;;;;;;23.38;100.00;98721.13;4935780;28;20238;-60
2023/08/15 07:35:06;;;;;;;13.17;6.90;;;;;;;23.51;100.00;98728.09;4933468;28;20237;-60
2023/08/15 07:37:33;;;;;;;10.70;6.57;;;;;;;23.66;100.00;98732.13;4935947;28;20274;-58
2023/08/15 07:40:05;;;;;;;12.90;7.33;;;;;;;23.52;100.00;98731.56;4931883;28;20286;-60
2023/08/15 07:42:33;;;;;;;9.17;7.13;;;;;;;23.62;100.00;98731.78;4936496;28;20251;-60
2023/08/15 07:45:00;;;;;;;11.57;7.67;;;;;;;23.84;100.00;98731.16;4931869;28;20323;-60
2023/08/15 07:47:27;;;;;;;9.80;7.40;;;;;;;23.87;100.00;98736.03;4934576;28;20608;-60
2023/08/15 07:50:12;;;;;;;11.73;7.97;;;;;;;23.57;100.00;98734.31;4949019;28;20585;-60
2023/08/15 07:52:38;;;;;;;10.73;7.10;;;;;;;23.58;100.00;98736.78;4938883;28;20230;-60
2023/08/15 07:55:07;;;;;;;13.33;7.20;;;;;;;23.53;100.00;98741.16;4932728;28;20231;-60
2023/08/15 07:57:35;;;;;;;11.37;7.40;;;;;;;23.48;100.00;98733.06;4934548;28;20232;-60
2023/08/15 08:00:03;;;;;;;8.47;6.83;;;;;;;23.48;100.00;98727.72;4929626;28;20237;-60
2023/08/15 08:02:39;;;;;;;9.10;6.90;;;;;;;23.63;100.00;98727.28;4936221;28;20223;-60
2023/08/15 08:05:09;;;;;;;8.00;6.37;;;;;;;23.86;100.00;98726.41;4935553;28;20224;-60
2023/08/15 08:07:35;;;;;;;10.87;6.70;;;;;;;23.95;100.00;98717.00;4933740;28;20684;-60
2023/08/15 08:10:02;;;;;;;9.30;6.87;;;;;;;24.00;100.00;98719.78;4930127;28;20221;-60
2023/08/15 08:12:30;;;;;;;12.10;6.90;;;;;;;24.06;100.00;98727.91;4935575;28;20239;-60
2023/08/15 08:14:58;;;;;;;9.20;7.10;;;;;;;24.15;100.00;98721.13;4932311;29;20237;-60
2023/08/15 08:17:24;;;;;;;9.43;7.17;;;;;;;24.20;100.00;98715.09;4935420;28;20220;-60
2023/08/15 08:19:51;;;;;;;10.83;6.90;;;;;;;24.44;100.00;98716.59;4933202;28;20586;-61
2023/08/15 08:22:18;;;;;;;9.83;6.93;;;;;;;24.55;100.00;98717.56;4951782;28;20732;-60
2023/08/15 08:24:51;;;;;;;13.63;7.60;;;;;;;24.56;100.00;98719.19;4937469;28;20261;-60
2023/08/15 08:27:19;;;;;;;15.37;7.43;;;;;;;24.49;100.00;98715.88;4932045;28;20372;-60
2023/08/15 08:29:50;;;;;;;9.13;6.93;;;;;;;24.67;100.00;98719.38;4934789;28;20325;-60
2023/08/15 08:32:18;;;;;;;10.80;7.50;;;;;;;24.76;97.82;98718.78;4932445;28;20686;-60
2023/08/15 08:34:51;;;;;;;14.00;7.43;;;;;;;25.02;97.98;98731.72;4936878;28;20300;-61
2023/08/15 08:37:17;;;;;;;8.40;6.67;;;;;;;25.25;96.15;98738.75;4931789;28;20308;-60
2023/08/15 08:39:50;;;;;;;13.10;6.63;;;;;;;25.57;93.79;98740.00;4936222;29;20232;-61
2023/08/15 08:42:17;;;;;;;9.93;7.70;;;;;;;25.71;93.53;98754.63;4931104;28;20251;-60
2023/08/15 08:44:49;;;;;;;11.53;7.10;;;;;;;26.01;91.19;98757.94;4932810;29;20733;-60
2023/08/15 08:47:16;;;;;;;11.60;6.93;;;;;;;26.13;88.97;98752.47;4932343;28;20227;-61
2023/08/15 08:49:46;;;;;;;13.83;8.60;;;;;;;26.14;87.25;98751.44;4939369;28;20695;-61
2023/08/15 08:52:14;;;;;;;11.60;7.47;;;;;;;25.64;88.69;98751.31;4938958;28;20243;-60
2023/08/15 08:54:40;;;;;;;12.17;7.87;;;;;;;25.88;87.06;98753.78;4935274;28;20608;-60
2023/08/15 08:57:07;;;;;;;10.07;7.33;;;;;;;25.98;85.96;98753.91;4933705;28;20244;-60
2023/08/15 08:59:37;;;;;;;13.43;7.60;;;;;;;25.66;85.87;98751.09;4938329;28;20237;-61
2023/08/15 09:02:05;;;;;;;12.73;7.30;;;;;;;25.98;84.50;98742.38;4935180;28;20236;-61
2023/08/15 09:04:32;;;;;;;9.47;7.27;;;;;;;26.16;85.23;98743.97;4934502;28;20240;-60
2023/08/15 09:07:00;;;;;;;13.13;7.07;;;;;;;26.21;81.34;98747.50;4934392;28;20733;-60
2023/08/15 09:09:27;;;;;;;9.83;7.37;;;;;;;26.63;79.42;98756.75;4936159;28;20239;-61
2023/08/15 09:11:53;;;;;;;9.47;6.47;;;;;;;26.84;77.39;98751.59;4936210;28;20245;-61
2023/08/15 09:14:20;;;;;;;9.00;6.37;;;;;;;27.06;75.00;98761.44;4936771;28;20689;-61
2023/08/15 09:16:48;;;;;;;8.77;6.37;;;;;;;27.16;75.89;98772.22;4943807;28;20226;-60
2023/08/15 09:19:15;;;;;;;10.33;6.90;;;;;;;26.89;73.79;98775.75;4938354;28;20274;-60
2023/08/15 09:21:42;;;;;;;12.60;6.57;;;;;;;27.08;74.73;98778.06;4938155;28;20244;-61
2023/08/15 09:24:10;;;;;;;7.53;6.43;;;;;;;26.92;73.97;98785.16;4933768;28;20682;-60
2023/08/15 09:26:39;;;;;;;11.97;6.10;;;;;;;26.99;77.08;98792.97;4938005;28;20236;-61
2023/08/15 09:29:06;;;;;;;11.33;6.70;;;;;;;26.93;75.57;98795.63;4934296;28;20258;-60
2023/08/15 09:31:32;;;;;;;20.27;7.90;;;;;;;26.60;79.67;98801.97;4935176;28;20248;-60
2023/08/15 09:33:59;;;;;;;13.97;6.87;;;;;;;26.44;82.81;98798.34;4931310;28;20238;-61
2023/08/15 09:36:27;;;;;;;9.57;7.00;;;;;;;26.20;85.85;98802.06;4938393;28;20239;-60
2023/08/15 09:38:57;;;;;;;8.83;6.60;;;;;;;26.68;77.38;98801.50;4934610;28;20236;-60
2023/08/15 09:41:26;;;;;;;8.90;7.07;;;;;;;26.74;78.36;98805.84;4935521;28;20925;-60
2023/08/15 09:43:54;;;;;;;8.37;6.60;;;;;;;27.01;76.94;98818.47;4932513;28;20705;-60
2023/08/15 09:46:22;;;;;;;8.63;5.97;;;;;;;26.40;80.56;98818.63;4934970;28;20240;-61
2023/08/15 09:48:51;;;;;;;9.53;5.97;;;;;;;27.10;75.18;98824.94;4936796;28;20316;-61
2023/08/15 09:51:19;;;;;;;9.13;6.23;;;;;;;26.84;74.77;98829.28;4933833;28;20321;-61
2023/08/15 09:53:47;;;;;;;12.80;6.80;;;;;;;27.08;70.20;98820.91;4937242;28;20730;-60
2023/08/15 09:56:15;;;;;;;11.90;4.80;;;;;;;27.13;63.11;98829.00;4933348;28;20585;-61
2023/08/15 09:58:43;;;;;;;6.63;4.63;;;;;;;27.05;62.41;98834.81;4937506;28;20260;-60
2023/08/15 10:01:14;;;;;;;7.47;4.70;;;;;;;27.04;62.70;98834.00;4935356;28;23589;-60
2023/08/15 10:03:42;;;;;;;5.40;4.00;;;;;;;27.13;62.24;98841.56;4941867;28;20321;-61
2023/08/15 10:06:10;;;;;;;7.37;4.87;;;;;;;27.25;63.22;98843.03;4932799;28;20237;-60
2023/08/15 10:08:38;;;;;;;9.17;4.47;;;;;;;27.06;62.06;98831.88;4937327;28;20570;-61
2023/08/15 10:11:08;;;;;;;5.77;4.50;;;;;;;26.89;63.17;98837.34;4934980;28;20661;-61
2023/08/15 10:13:37;;;;;;;8.65;4.32;;;;;;;27.03;65.26;98839.63;4936293;29;20217;-61
2023/08/15 10:16:07;;;;;;;5.90;4.37;;;;;;;27.06;63.77;98847.94;4947394;28;20751;-61
2023/08/15 10:18:34;;;;;;;6.50;4.37;;;;;;;26.92;62.35;98850.25;4935487;28;20248;-60
2023/08/15 10:21:02;;;;;;;8.40;4.63;;;;;;;26.47;63.17;98860.19;4933737;28;20236;-61
2023/08/15 10:23:30;;;;;;;7.97;4.80;;;;;;;26.55;64.75;98864.28;4941722;28;20231;-61
2023/08/15 10:25:57;;;;;;;9.80;5.27;;;;;;;26.82;62.52;98863.53;4933523;28;20319;-61
2023/08/15 10:28:26;;;;;;;7.37;3.97;;;;;;;26.78;60.60;98873.09;4933881;28;20585;-60
2023/08/15 10:30:53;;;;;;;9.73;4.20;;;;;;;26.41;61.99;98874.56;4931508;28;20322;-61
2023/08/15 10:33:23;;;;;;;5.23;4.27;;;;;;;26.78;62.18;98878.44;4936481;28;20236;-60
2023/08/15 10:35:52;;;;;;;6.63;3.90;;;;;;;26.64;63.05;98873.47;4935631;28;20314;-61
2023/08/15 10:38:21;;;;;;;8.20;4.40;;;;;;;27.30;62.10;98874.41;4929568;29;20239;-61
2023/08/15 10:40:48;;;;;;;8.30;4.73;;;;;;;27.17;63.81;98872.97;4934247;28;20264;-61
2023/08/15 10:43:15;;;;;;;9.60;4.67;;;;;;;27.43;63.24;98870.53;4930871;29;20241;-60
2023/08/15 10:45:45;;;;;;;8.87;4.37;;;;;;;27.07;64.15;98878.25;4937405;28;20243;-61
2023/08/15 10:48:12;;;;;;;6.87;4.07;;;;;;;27.43;60.41;98875.88;4932553;28;20268;-60
2023/08/15 10:50:48;;;;;;;11.67;5.10;;;;;;;26.71;62.48;98870.63;4934739;28;20229;-61
2023/08/15 10:53:15;;;;;;;7.30;4.63;;;;;;;26.96;61.22;98863.94;4931357;28;20732;-60
2023/08/15 10:55:42;;;;;;;7.37;4.73;;;;;;;26.95;63.76;98873.84;4939142;28;20251;-61
2023/08/15 10:58:10;;;;;;;7.30;4.67;;;;;;;27.03;62.49;98867.19;4932806;28;20709;-60
2023/08/15 11:00:38;;;;;;;11.20;4.83;;;;;;;27.24;61.10;98873.56;4936196;29;20239;-60
2023/08/15 11:03:06;;;;;;;7.13;4.50;;;;;;;26.49;61.75;98879.47;4930313;28;20227;-61
2023/08/15 11:05:33;;;;;;;12.33;4.87;;;;;;;26.80;60.36;98876.31;4933851;28;20236;-61
2023/08/15 11:08:12;;;;;;;8.37;4.87;;;;;;;26.22;63.97;98872.19;4935263;28;20749;-60
2023/08/15 11:10:43;;;;;;;7.97;5.20;;;;;;;27.03;59.64;98869.09;4934360;28;20230;-61
2023/08/15 11:13:10;;;;;;;7.53;4.37;;;;;;;26.45;61.20;98858.81;4936296;28;20681;-61
2023/08/15 11:15:37;;;;;;;9.40;4.30;;;;;;;26.65;61.36;98864.38;4933907;28;20245;-61
2023/08/15 11:18:04;;;;;;;6.53;4.10;;;;;;;27.10;60.43;98867.00;4925713;28;20239;-61
2023/08/15 11:20:31;;;;;;;7.30;4.40;;;;;;;26.92;61.93;98857.47;4936639;29;20699;-61
2023/08/15 11:22:59;;;;;;;7.63;4.33;;;;;;;26.93;60.27;98854.53;4934828;28;20236;-61
2023/08/15 11:25:27;;;;;;;8.27;4.30;;;;;;;27.29;60.32;98864.75;4933305;28;20287;-61